sensor_id;sensor_type;location;lat;lon;timestamp;P1;durP1;ratioP1;P2;durP2;ratioP2
71671;SDS011;62112;45.638;11.714;2022-11-03T00:01:00;13.85;;;6.82;;
71671;SDS011;62112;45.638;11.714;2022-11-03T00:03:26;15.50;;;7.00;;
71671;SDS011;62112;45.638;11.714;2022-11-03T00:05:52;14.53;;;6.97;;
71671;SDS011;62112;45.638;11.714;2022-11-03T00:13:34;12.05;;;6.63;;
71671;SDS011;62112;45.638;11.714;2022-11-03T00:16:01;13.75;;;6.82;;
71671;SDS011;62112;45.638;11.714;2022-11-03T00:18:27;13.60;;;7.20;;
71671;SDS011;62112;45.638;11.714;2022-11-03T00:20:57;16.23;;;7.38;;
71671;SDS011;62112;45.638;11.714;2022-11-03T00:23:29;13.05;;;6.75;;
71671;SDS011;62112;45.638;11.714;2022-11-03T00:26:13;15.32;;;7.00;;
71671;SDS011;62112;45.638;11.714;2022-11-03T00:28:45;13.37;;;7.27;;
71671;SDS011;62112;45.638;11.714;2022-11-03T00:31:17;13.15;;;6.75;;
71671;SDS011;62112;45.638;11.714;2022-11-03T00:33:44;12.13;;;6.70;;
71671;SDS011;62112;45.638;11.714;2022-11-03T00:36:12;12.70;;;6.88;;
71671;SDS011;62112;45.638;11.714;2022-11-03T00:38:39;13.10;;;7.07;;
71671;SDS011;62112;45.638;11.714;2022-11-03T00:41:06;10.80;;;6.47;;
71671;SDS011;62112;45.638;11.714;2022-11-03T00:43:32;13.57;;;6.72;;
71671;SDS011;62112;45.638;11.714;2022-11-03T00:46:00;12.65;;;6.90;;
71671;SDS011;62112;45.638;11.714;2022-11-03T00:48:26;13.32;;;6.57;;
71671;SDS011;62112;45.638;11.714;2022-11-03T00:51:03;11.80;;;6.68;;
71671;SDS011;62112;45.638;11.714;2022-11-03T00:53:37;13.73;;;6.40;;
71671;SDS011;62112;45.638;11.714;2022-11-03T00:56:05;11.75;;;6.85;;
71671;SDS011;62112;45.638;11.714;2022-11-03T00:58:31;11.20;;;6.65;;
71671;SDS011;62112;45.638;11.714;2022-11-03T01:01:04;14.35;;;6.82;;
71671;SDS011;62112;45.638;11.714;2022-11-03T01:03:34;11.13;;;6.55;;
71671;SDS011;62112;45.638;11.714;2022-11-03T01:06:04;11.57;;;6.40;;
71671;SDS011;62112;45.638;11.714;2022-11-03T01:08:49;14.02;;;7.07;;
71671;SDS011;62112;45.638;11.714;2022-11-03T01:11:17;13.95;;;6.50;;
71671;SDS011;62112;45.638;11.714;2022-11-03T01:14:04;12.00;;;6.65;;
71671;SDS011;62112;45.638;11.714;2022-11-03T01:16:30;12.40;;;6.63;;
71671;SDS011;62112;45.638;11.714;2022-11-03T01:18:56;11.32;;;6.20;;
71671;SDS011;62112;45.638;11.714;2022-11-03T01:21:23;12.60;;;6.70;;
71671;SDS011;62112;45.638;11.714;2022-11-03T01:23:49;12.40;;;6.25;;
71671;SDS011;62112;45.638;11.714;2022-11-03T01:26:15;11.73;;;6.57;;
71671;SDS011;62112;45.638;11.714;2022-11-03T01:28:42;12.13;;;6.53;;
71671;SDS011;62112;45.638;11.714;2022-11-03T01:31:13;11.27;;;6.20;;
71671;SDS011;62112;45.638;11.714;2022-11-03T01:33:41;13.30;;;6.60;;
71671;SDS011;62112;45.638;11.714;2022-11-03T01:36:08;12.02;;;6.20;;
71671;SDS011;62112;45.638;11.714;2022-11-03T01:38:34;11.02;;;6.43;;
71671;SDS011;62112;45.638;11.714;2022-11-03T01:41:01;12.40;;;6.20;;
71671;SDS011;62112;45.638;11.714;2022-11-03T01:43:28;14.55;;;6.38;;
71671;SDS011;62112;45.638;11.714;2022-11-03T01:45:59;11.50;;;6.28;;
71671;SDS011;62112;45.638;11.714;2022-11-03T01:48:33;11.82;;;6.70;;
71671;SDS011;62112;45.638;11.714;2022-11-03T01:51:01;11.82;;;6.30;;
71671;SDS011;62112;45.638;11.714;2022-11-03T01:53:29;11.37;;;6.67;;
71671;SDS011;62112;45.638;11.714;2022-11-03T01:55:56;10.07;;;5.82;;
71671;SDS011;62112;45.638;11.714;2022-11-03T01:58:30;13.00;;;6.45;;
71671;SDS011;62112;45.638;11.714;2022-11-03T02:01:01;11.05;;;6.10;;
71671;SDS011;62112;45.638;11.714;2022-11-03T02:03:30;12.57;;;6.43;;
71671;SDS011;62112;45.638;11.714;2022-11-03T02:06:00;11.97;;;6.10;;
71671;SDS011;62112;45.638;11.714;2022-11-03T02:08:29;12.07;;;6.10;;
71671;SDS011;62112;45.638;11.714;2022-11-03T02:10:59;10.90;;;6.38;;
71671;SDS011;62112;45.638;11.714;2022-11-03T02:13:45;11.13;;;6.25;;
71671;SDS011;62112;45.638;11.714;2022-11-03T02:16:11;11.90;;;5.80;;
71671;SDS011;62112;45.638;11.714;2022-11-03T02:18:39;11.73;;;6.07;;
71671;SDS011;62112;45.638;11.714;2022-11-03T02:21:51;12.75;;;6.47;;
71671;SDS011;62112;45.638;11.714;2022-11-03T02:26:36;11.15;;;5.93;;
71671;SDS011;62112;45.638;11.714;2022-11-03T02:29:03;11.52;;;6.30;;
71671;SDS011;62112;45.638;11.714;2022-11-03T02:31:34;11.07;;;6.20;;
71671;SDS011;62112;45.638;11.714;2022-11-03T02:37:03;10.82;;;6.00;;
71671;SDS011;62112;45.638;11.714;2022-11-03T02:39:35;10.38;;;5.88;;
71671;SDS011;62112;45.638;11.714;2022-11-03T02:42:07;9.98;;;5.95;;
71671;SDS011;62112;45.638;11.714;2022-11-03T02:44:36;12.13;;;6.07;;
71671;SDS011;62112;45.638;11.714;2022-11-03T02:47:05;11.20;;;6.03;;
71671;SDS011;62112;45.638;11.714;2022-11-03T02:49:44;11.02;;;5.97;;
71671;SDS011;62112;45.638;11.714;2022-11-03T02:55:03;11.27;;;6.00;;
71671;SDS011;62112;45.638;11.714;2022-11-03T02:57:35;11.60;;;6.07;;
71671;SDS011;62112;45.638;11.714;2022-11-03T03:00:22;12.15;;;6.20;;
71671;SDS011;62112;45.638;11.714;2022-11-03T03:03:07;10.68;;;6.07;;
71671;SDS011;62112;45.638;11.714;2022-11-03T03:05:37;10.68;;;5.78;;
71671;SDS011;62112;45.638;11.714;2022-11-03T03:08:06;9.52;;;5.60;;
71671;SDS011;62112;45.638;11.714;2022-11-03T03:10:38;11.63;;;5.90;;
71671;SDS011;62112;45.638;11.714;2022-11-03T03:13:06;9.98;;;5.72;;
71671;SDS011;62112;45.638;11.714;2022-11-03T03:15:47;9.85;;;5.50;;
71671;SDS011;62112;45.638;11.714;2022-11-03T03:18:27;10.18;;;5.78;;
71671;SDS011;62112;45.638;11.714;2022-11-03T03:23:45;10.43;;;5.97;;
71671;SDS011;62112;45.638;11.714;2022-11-03T03:26:23;10.18;;;5.65;;
71671;SDS011;62112;45.638;11.714;2022-11-03T03:31:42;10.82;;;6.10;;
71671;SDS011;62112;45.638;11.714;2022-11-03T03:34:12;10.10;;;5.77;;
71671;SDS011;62112;45.638;11.714;2022-11-03T03:36:41;10.10;;;5.80;;
71671;SDS011;62112;45.638;11.714;2022-11-03T03:39:10;10.40;;;5.43;;
71671;SDS011;62112;45.638;11.714;2022-11-03T03:41:38;10.23;;;5.68;;
71671;SDS011;62112;45.638;11.714;2022-11-03T03:44:06;10.32;;;5.55;;
71671;SDS011;62112;45.638;11.714;2022-11-03T03:46:35;9.27;;;5.47;;
71671;SDS011;62112;45.638;11.714;2022-11-03T03:49:06;10.10;;;6.07;;
71671;SDS011;62112;45.638;11.714;2022-11-03T03:51:33;9.45;;;5.85;;
71671;SDS011;62112;45.638;11.714;2022-11-03T03:53:59;10.95;;;6.20;;
71671;SDS011;62112;45.638;11.714;2022-11-03T03:57:08;9.07;;;5.43;;
71671;SDS011;62112;45.638;11.714;2022-11-03T03:59:23;9.60;;;5.50;;
71671;SDS011;62112;45.638;11.714;2022-11-03T04:01:49;10.25;;;6.07;;
71671;SDS011;62112;45.638;11.714;2022-11-03T04:04:15;9.55;;;5.43;;
71671;SDS011;62112;45.638;11.714;2022-11-03T04:06:41;11.43;;;5.67;;
71671;SDS011;62112;45.638;11.714;2022-11-03T04:09:07;9.55;;;5.80;;
71671;SDS011;62112;45.638;11.714;2022-11-03T04:11:33;9.95;;;5.60;;
71671;SDS011;62112;45.638;11.714;2022-11-03T04:14:18;9.45;;;5.50;;
71671;SDS011;62112;45.638;11.714;2022-11-03T04:17:02;9.55;;;5.47;;
71671;SDS011;62112;45.638;11.714;2022-11-03T04:19:47;9.73;;;5.70;;
71671;SDS011;62112;45.638;11.714;2022-11-03T04:22:32;9.18;;;5.40;;
71671;SDS011;62112;45.638;11.714;2022-11-03T04:24:58;10.07;;;5.57;;
71671;SDS011;62112;45.638;11.714;2022-11-03T04:27:35;9.40;;;5.60;;
71671;SDS011;62112;45.638;11.714;2022-11-03T04:32:33;10.17;;;5.47;;
71671;SDS011;62112;45.638;11.714;2022-11-03T04:35:00;9.43;;;5.35;;
71671;SDS011;62112;45.638;11.714;2022-11-03T04:37:27;9.68;;;5.43;;
71671;SDS011;62112;45.638;11.714;2022-11-03T04:39:57;10.27;;;5.55;;
71671;SDS011;62112;45.638;11.714;2022-11-03T04:42:27;9.18;;;5.40;;
71671;SDS011;62112;45.638;11.714;2022-11-03T04:44:57;9.47;;;5.33;;
71671;SDS011;62112;45.638;11.714;2022-11-03T04:47:25;8.48;;;5.13;;
71671;SDS011;62112;45.638;11.714;2022-11-03T04:49:51;10.25;;;5.15;;
71671;SDS011;62112;45.638;11.714;2022-11-03T04:52:20;9.25;;;5.57;;
71671;SDS011;62112;45.638;11.714;2022-11-03T04:54:47;10.07;;;5.57;;
71671;SDS011;62112;45.638;11.714;2022-11-03T04:57:16;9.27;;;5.30;;
71671;SDS011;62112;45.638;11.714;2022-11-03T04:59:44;9.43;;;5.35;;
71671;SDS011;62112;45.638;11.714;2022-11-03T05:02:16;9.07;;;4.97;;
71671;SDS011;62112;45.638;11.714;2022-11-03T05:04:44;9.00;;;5.30;;
71671;SDS011;62112;45.638;11.714;2022-11-03T05:07:24;10.03;;;5.63;;
71671;SDS011;62112;45.638;11.714;2022-11-03T05:09:57;8.50;;;5.30;;
71671;SDS011;62112;45.638;11.714;2022-11-03T05:12:23;10.05;;;5.60;;
71671;SDS011;62112;45.638;11.714;2022-11-03T05:14:49;9.20;;;5.05;;
71671;SDS011;62112;45.638;11.714;2022-11-03T05:17:22;9.18;;;5.10;;
71671;SDS011;62112;45.638;11.714;2022-11-03T05:19:59;9.00;;;5.23;;
71671;SDS011;62112;45.638;11.714;2022-11-03T05:22:28;9.50;;;5.40;;
71671;SDS011;62112;45.638;11.714;2022-11-03T05:25:02;9.25;;;5.10;;
71671;SDS011;62112;45.638;11.714;2022-11-03T05:27:51;9.77;;;5.03;;
71671;SDS011;62112;45.638;11.714;2022-11-03T05:30:17;8.90;;;5.23;;
71671;SDS011;62112;45.638;11.714;2022-11-03T05:32:43;9.02;;;5.40;;
71671;SDS011;62112;45.638;11.714;2022-11-03T05:35:17;9.68;;;5.13;;
71671;SDS011;62112;45.638;11.714;2022-11-03T05:37:46;10.23;;;5.40;;
71671;SDS011;62112;45.638;11.714;2022-11-03T05:40:22;9.23;;;5.30;;
71671;SDS011;62112;45.638;11.714;2022-11-03T05:42:52;8.27;;;4.80;;
71671;SDS011;62112;45.638;11.714;2022-11-03T05:45:28;9.93;;;5.18;;
71671;SDS011;62112;45.638;11.714;2022-11-03T05:47:57;8.47;;;4.63;;
71671;SDS011;62112;45.638;11.714;2022-11-03T05:50:25;8.95;;;5.20;;
71671;SDS011;62112;45.638;11.714;2022-11-03T05:52:57;9.35;;;5.25;;
71671;SDS011;62112;45.638;11.714;2022-11-03T05:55:36;9.00;;;5.30;;
71671;SDS011;62112;45.638;11.714;2022-11-03T05:58:14;10.05;;;5.57;;
71671;SDS011;62112;45.638;11.714;2022-11-03T06:00:49;9.43;;;5.30;;
71671;SDS011;62112;45.638;11.714;2022-11-03T06:03:16;9.43;;;4.90;;
71671;SDS011;62112;45.638;11.714;2022-11-03T06:05:47;8.82;;;4.88;;
71671;SDS011;62112;45.638;11.714;2022-11-03T06:08:14;8.63;;;4.80;;
71671;SDS011;62112;45.638;11.714;2022-11-03T06:10:45;8.57;;;5.00;;
71671;SDS011;62112;45.638;11.714;2022-11-03T06:13:24;8.63;;;4.97;;
71671;SDS011;62112;45.638;11.714;2022-11-03T06:15:56;8.73;;;5.10;;
71671;SDS011;62112;45.638;11.714;2022-11-03T06:18:28;9.45;;;5.18;;
71671;SDS011;62112;45.638;11.714;2022-11-03T06:21:06;9.45;;;5.05;;
71671;SDS011;62112;45.638;11.714;2022-11-03T06:23:37;8.88;;;4.82;;
71671;SDS011;62112;45.638;11.714;2022-11-03T06:26:07;9.00;;;4.80;;
71671;SDS011;62112;45.638;11.714;2022-11-03T06:28:42;8.10;;;5.00;;
71671;SDS011;62112;45.638;11.714;2022-11-03T06:31:20;8.68;;;4.85;;
71671;SDS011;62112;45.638;11.714;2022-11-03T06:33:48;9.32;;;4.88;;
71671;SDS011;62112;45.638;11.714;2022-11-03T06:36:25;8.73;;;5.00;;
71671;SDS011;62112;45.638;11.714;2022-11-03T06:39:07;7.63;;;4.53;;
71671;SDS011;62112;45.638;11.714;2022-11-03T06:41:41;8.68;;;5.20;;
71671;SDS011;62112;45.638;11.714;2022-11-03T06:46:49;8.55;;;4.88;;
71671;SDS011;62112;45.638;11.714;2022-11-03T06:49:31;8.70;;;5.20;;
71671;SDS011;62112;45.638;11.714;2022-11-03T06:52:01;8.87;;;5.20;;
71671;SDS011;62112;45.638;11.714;2022-11-03T06:54:38;9.00;;;5.07;;
71671;SDS011;62112;45.638;11.714;2022-11-03T06:57:08;9.75;;;4.90;;
71671;SDS011;62112;45.638;11.714;2022-11-03T06:59:37;10.48;;;5.00;;
71671;SDS011;62112;45.638;11.714;2022-11-03T07:02:07;8.33;;;4.60;;
71671;SDS011;62112;45.638;11.714;2022-11-03T07:04:58;8.75;;;5.05;;
71671;SDS011;62112;45.638;11.714;2022-11-03T07:07:25;8.77;;;5.00;;
71671;SDS011;62112;45.638;11.714;2022-11-03T07:09:50;8.57;;;4.78;;
71671;SDS011;62112;45.638;11.714;2022-11-03T07:12:18;8.37;;;4.63;;
71671;SDS011;62112;45.638;11.714;2022-11-03T07:14:45;7.78;;;4.63;;
71671;SDS011;62112;45.638;11.714;2022-11-03T07:17:15;8.82;;;5.00;;
71671;SDS011;62112;45.638;11.714;2022-11-03T07:19:45;7.50;;;4.32;;
71671;SDS011;62112;45.638;11.714;2022-11-03T07:22:22;7.40;;;4.53;;
71671;SDS011;62112;45.638;11.714;2022-11-03T07:24:55;8.60;;;4.68;;
71671;SDS011;62112;45.638;11.714;2022-11-03T07:29:53;8.27;;;4.60;;
71671;SDS011;62112;45.638;11.714;2022-11-03T07:32:24;8.85;;;4.45;;
71671;SDS011;62112;45.638;11.714;2022-11-03T07:34:56;8.53;;;4.73;;
71671;SDS011;62112;45.638;11.714;2022-11-03T07:37:37;8.38;;;4.72;;
71671;SDS011;62112;45.638;11.714;2022-11-03T07:40:04;9.30;;;5.03;;
71671;SDS011;62112;45.638;11.714;2022-11-03T07:42:36;10.43;;;4.82;;
71671;SDS011;62112;45.638;11.714;2022-11-03T07:45:04;10.50;;;4.43;;
71671;SDS011;62112;45.638;11.714;2022-11-03T07:47:58;9.63;;;4.80;;
71671;SDS011;62112;45.638;11.714;2022-11-03T07:50:24;10.55;;;4.90;;
71671;SDS011;62112;45.638;11.714;2022-11-03T07:52:50;9.95;;;5.00;;
71671;SDS011;62112;45.638;11.714;2022-11-03T07:55:17;8.60;;;4.90;;
71671;SDS011;62112;45.638;11.714;2022-11-03T07:57:45;8.70;;;4.70;;
71671;SDS011;62112;45.638;11.714;2022-11-03T08:00:13;9.10;;;4.90;;
71671;SDS011;62112;45.638;11.714;2022-11-03T08:02:56;8.48;;;4.60;;
71671;SDS011;62112;45.638;11.714;2022-11-03T08:05:25;10.23;;;5.22;;
71671;SDS011;62112;45.638;11.714;2022-11-03T08:07:51;8.30;;;5.17;;
71671;SDS011;62112;45.638;11.714;2022-11-03T08:10:17;8.88;;;4.93;;
71671;SDS011;62112;45.638;11.714;2022-11-03T08:12:46;9.07;;;4.97;;
71671;SDS011;62112;45.638;11.714;2022-11-03T08:15:13;10.45;;;5.10;;
71671;SDS011;62112;45.638;11.714;2022-11-03T08:17:40;8.60;;;5.00;;
71671;SDS011;62112;45.638;11.714;2022-11-03T08:20:08;10.00;;;5.20;;
71671;SDS011;62112;45.638;11.714;2022-11-03T08:22:36;8.68;;;5.00;;
71671;SDS011;62112;45.638;11.714;2022-11-03T08:25:04;10.00;;;4.95;;
71671;SDS011;62112;45.638;11.714;2022-11-03T08:27:31;11.40;;;5.03;;
71671;SDS011;62112;45.638;11.714;2022-11-03T08:29:57;10.40;;;5.30;;
71671;SDS011;62112;45.638;11.714;2022-11-03T08:32:22;8.77;;;5.30;;
71671;SDS011;62112;45.638;11.714;2022-11-03T08:34:48;11.82;;;5.53;;
71671;SDS011;62112;45.638;11.714;2022-11-03T08:37:14;9.52;;;5.63;;
71671;SDS011;62112;45.638;11.714;2022-11-03T08:39:40;10.83;;;5.80;;
71671;SDS011;62112;45.638;11.714;2022-11-03T08:42:06;9.95;;;5.25;;
71671;SDS011;62112;45.638;11.714;2022-11-03T08:44:32;10.32;;;6.35;;
71671;SDS011;62112;45.638;11.714;2022-11-03T08:46:58;13.47;;;6.17;;
71671;SDS011;62112;45.638;11.714;2022-11-03T08:49:24;10.83;;;6.43;;
71671;SDS011;62112;45.638;11.714;2022-11-03T08:51:49;10.88;;;6.45;;
71671;SDS011;62112;45.638;11.714;2022-11-03T08:54:15;10.87;;;6.40;;
71671;SDS011;62112;45.638;11.714;2022-11-03T09:19:55;15.33;;;9.03;;
71671;SDS011;62112;45.638;11.714;2022-11-03T09:22:21;13.13;;;8.93;;
71671;SDS011;62112;45.638;11.714;2022-11-03T09:24:47;16.90;;;9.40;;
71671;SDS011;62112;45.638;11.714;2022-11-03T09:27:13;13.32;;;9.23;;
71671;SDS011;62112;45.638;11.714;2022-11-03T09:29:39;14.23;;;8.93;;
71671;SDS011;62112;45.638;11.714;2022-11-03T09:32:05;14.75;;;9.30;;
71671;SDS011;62112;45.638;11.714;2022-11-03T09:34:32;14.25;;;10.00;;
71671;SDS011;62112;45.638;11.714;2022-11-03T09:36:58;14.75;;;9.63;;
71671;SDS011;62112;45.638;11.714;2022-11-03T09:39:24;18.07;;;10.13;;
71671;SDS011;62112;45.638;11.714;2022-11-03T09:41:50;14.52;;;9.25;;
71671;SDS011;62112;45.638;11.714;2022-11-03T09:44:16;14.68;;;9.32;;
71671;SDS011;62112;45.638;11.714;2022-11-03T09:46:42;15.25;;;9.65;;
71671;SDS011;62112;45.638;11.714;2022-11-03T09:49:10;16.10;;;9.10;;
71671;SDS011;62112;45.638;11.714;2022-11-03T09:51:39;15.98;;;9.48;;
71671;SDS011;62112;45.638;11.714;2022-11-03T09:54:09;14.77;;;9.25;;
71671;SDS011;62112;45.638;11.714;2022-11-03T09:56:38;16.15;;;9.80;;
71671;SDS011;62112;45.638;11.714;2022-11-03T10:01:56;13.80;;;8.60;;
71671;SDS011;62112;45.638;11.714;2022-11-03T10:04:24;13.10;;;8.95;;
71671;SDS011;62112;45.638;11.714;2022-11-03T10:06:53;14.75;;;9.30;;
71671;SDS011;62112;45.638;11.714;2022-11-03T10:09:20;16.35;;;8.43;;
71671;SDS011;62112;45.638;11.714;2022-11-03T10:11:47;15.83;;;8.50;;
71671;SDS011;62112;45.638;11.714;2022-11-03T10:14:15;13.00;;;8.60;;
71671;SDS011;62112;45.638;11.714;2022-11-03T10:16:43;13.80;;;8.82;;
71671;SDS011;62112;45.638;11.714;2022-11-03T10:19:14;14.57;;;8.10;;
71671;SDS011;62112;45.638;11.714;2022-11-03T10:21:40;15.07;;;8.53;;
71671;SDS011;62112;45.638;11.714;2022-11-03T10:24:09;15.45;;;7.75;;
71671;SDS011;62112;45.638;11.714;2022-11-03T10:26:48;15.02;;;8.23;;
71671;SDS011;62112;45.638;11.714;2022-11-03T10:29:19;14.32;;;8.30;;
71671;SDS011;62112;45.638;11.714;2022-11-03T10:31:50;13.43;;;8.20;;
71671;SDS011;62112;45.638;11.714;2022-11-03T10:34:25;12.23;;;7.87;;
71671;SDS011;62112;45.638;11.714;2022-11-03T10:37:11;14.20;;;8.48;;
71671;SDS011;62112;45.638;11.714;2022-11-03T10:39:41;13.73;;;7.95;;
71671;SDS011;62112;45.638;11.714;2022-11-03T10:42:18;14.90;;;8.40;;
71671;SDS011;62112;45.638;11.714;2022-11-03T10:44:50;12.73;;;7.80;;
71671;SDS011;62112;45.638;11.714;2022-11-03T10:47:22;12.87;;;7.40;;
71671;SDS011;62112;45.638;11.714;2022-11-03T10:49:49;12.77;;;7.60;;
71671;SDS011;62112;45.638;11.714;2022-11-03T10:54:45;12.80;;;7.07;;
71671;SDS011;62112;45.638;11.714;2022-11-03T10:57:12;12.82;;;7.57;;
71671;SDS011;62112;45.638;11.714;2022-11-03T10:59:38;13.50;;;7.80;;
71671;SDS011;62112;45.638;11.714;2022-11-03T11:02:16;13.18;;;7.38;;
71671;SDS011;62112;45.638;11.714;2022-11-03T11:04:47;12.82;;;7.38;;
71671;SDS011;62112;45.638;11.714;2022-11-03T11:07:20;13.38;;;7.13;;
71671;SDS011;62112;45.638;11.714;2022-11-03T11:09:50;11.40;;;6.95;;
71671;SDS011;62112;45.638;11.714;2022-11-03T11:12:18;11.80;;;6.73;;
71671;SDS011;62112;45.638;11.714;2022-11-03T11:14:56;13.40;;;7.07;;
71671;SDS011;62112;45.638;11.714;2022-11-03T11:22:45;12.73;;;7.18;;
71671;SDS011;62112;45.638;11.714;2022-11-03T11:25:11;11.90;;;7.17;;
71671;SDS011;62112;45.638;11.714;2022-11-03T11:30:04;15.13;;;6.90;;
71671;SDS011;62112;45.638;11.714;2022-11-03T11:41:10;11.40;;;6.53;;
71671;SDS011;62112;45.638;11.714;2022-11-03T11:43:36;12.10;;;6.97;;
71671;SDS011;62112;45.638;11.714;2022-11-03T11:51:22;12.32;;;6.40;;
71671;SDS011;62112;45.638;11.714;2022-11-03T11:53:48;10.50;;;6.30;;
71671;SDS011;62112;45.638;11.714;2022-11-03T11:56:16;12.67;;;6.70;;
71671;SDS011;62112;45.638;11.714;2022-11-03T11:58:43;11.10;;;6.22;;
71671;SDS011;62112;45.638;11.714;2022-11-03T12:01:22;10.50;;;6.15;;
71671;SDS011;62112;45.638;11.714;2022-11-03T12:04:03;11.18;;;6.30;;
71671;SDS011;62112;45.638;11.714;2022-11-03T12:06:42;11.02;;;6.63;;
71671;SDS011;62112;45.638;11.714;2022-11-03T12:11:42;12.85;;;6.63;;
71671;SDS011;62112;45.638;11.714;2022-11-03T12:14:46;10.93;;;6.40;;
71671;SDS011;62112;45.638;11.714;2022-11-03T12:19:44;12.88;;;6.70;;
71671;SDS011;62112;45.638;11.714;2022-11-03T12:22:16;13.53;;;7.43;;
71671;SDS011;62112;45.638;11.714;2022-11-03T12:25:04;14.05;;;7.38;;
71671;SDS011;62112;45.638;11.714;2022-11-03T12:29:59;11.93;;;7.00;;
71671;SDS011;62112;45.638;11.714;2022-11-03T12:32:27;14.23;;;7.72;;
71671;SDS011;62112;45.638;11.714;2022-11-03T12:34:54;12.93;;;7.43;;
71671;SDS011;62112;45.638;11.714;2022-11-03T12:37:20;14.50;;;7.85;;
71671;SDS011;62112;45.638;11.714;2022-11-03T12:39:47;15.00;;;7.65;;
71671;SDS011;62112;45.638;11.714;2022-11-03T12:42:13;14.63;;;8.15;;
71671;SDS011;62112;45.638;11.714;2022-11-03T12:44:45;13.20;;;7.50;;
71671;SDS011;62112;45.638;11.714;2022-11-03T12:47:11;14.10;;;7.60;;
71671;SDS011;62112;45.638;11.714;2022-11-03T12:49:38;13.32;;;7.40;;
71671;SDS011;62112;45.638;11.714;2022-11-03T12:52:04;14.50;;;8.10;;
71671;SDS011;62112;45.638;11.714;2022-11-03T12:54:33;16.03;;;8.10;;
71671;SDS011;62112;45.638;11.714;2022-11-03T12:56:59;14.85;;;8.25;;
71671;SDS011;62112;45.638;11.714;2022-11-03T12:59:26;15.82;;;8.07;;
71671;SDS011;62112;45.638;11.714;2022-11-03T13:01:52;13.65;;;8.07;;
71671;SDS011;62112;45.638;11.714;2022-11-03T13:04:18;13.75;;;7.40;;
71671;SDS011;62112;45.638;11.714;2022-11-03T13:06:45;13.23;;;8.07;;
71671;SDS011;62112;45.638;11.714;2022-11-03T13:09:11;14.15;;;7.80;;
71671;SDS011;62112;45.638;11.714;2022-11-03T13:11:38;12.90;;;7.32;;
71671;SDS011;62112;45.638;11.714;2022-11-03T13:14:22;14.50;;;7.72;;
71671;SDS011;62112;45.638;11.714;2022-11-03T13:16:51;14.55;;;8.45;;
71671;SDS011;62112;45.638;11.714;2022-11-03T13:19:19;15.60;;;8.63;;
71671;SDS011;62112;45.638;11.714;2022-11-03T13:21:46;15.98;;;8.38;;
71671;SDS011;62112;45.638;11.714;2022-11-03T13:24:15;18.40;;;9.23;;
71671;SDS011;62112;45.638;11.714;2022-11-03T13:26:45;14.70;;;8.10;;
71671;SDS011;62112;45.638;11.714;2022-11-03T13:29:12;13.98;;;8.38;;
71671;SDS011;62112;45.638;11.714;2022-11-03T13:31:39;15.77;;;8.17;;
71671;SDS011;62112;45.638;11.714;2022-11-03T13:34:05;15.73;;;8.20;;
71671;SDS011;62112;45.638;11.714;2022-11-03T13:36:32;14.00;;;7.88;;
71671;SDS011;62112;45.638;11.714;2022-11-03T13:38:59;15.50;;;8.20;;
71671;SDS011;62112;45.638;11.714;2022-11-03T13:41:30;13.38;;;7.70;;
71671;SDS011;62112;45.638;11.714;2022-11-03T13:43:56;15.60;;;8.60;;
71671;SDS011;62112;45.638;11.714;2022-11-03T13:46:28;14.40;;;8.10;;
71671;SDS011;62112;45.638;11.714;2022-11-03T13:48:55;12.80;;;7.57;;
71671;SDS011;62112;45.638;11.714;2022-11-03T13:51:22;14.48;;;8.45;;
71671;SDS011;62112;45.638;11.714;2022-11-03T13:53:48;14.73;;;7.97;;
71671;SDS011;62112;45.638;11.714;2022-11-03T13:56:15;14.17;;;7.83;;
71671;SDS011;62112;45.638;11.714;2022-11-03T13:58:52;14.02;;;7.93;;
71671;SDS011;62112;45.638;11.714;2022-11-03T14:01:21;14.35;;;8.30;;
71671;SDS011;62112;45.638;11.714;2022-11-03T14:03:54;14.57;;;8.43;;
71671;SDS011;62112;45.638;11.714;2022-11-03T14:06:21;14.68;;;8.00;;
71671;SDS011;62112;45.638;11.714;2022-11-03T14:08:50;14.13;;;7.80;;
71671;SDS011;62112;45.638;11.714;2022-11-03T14:11:16;13.27;;;7.50;;
71671;SDS011;62112;45.638;11.714;2022-11-03T14:14:03;15.73;;;8.93;;
71671;SDS011;62112;45.638;11.714;2022-11-03T14:16:35;12.52;;;7.53;;
71671;SDS011;62112;45.638;11.714;2022-11-03T14:19:04;14.27;;;7.63;;
71671;SDS011;62112;45.638;11.714;2022-11-03T14:21:35;14.13;;;7.97;;
71671;SDS011;62112;45.638;11.714;2022-11-03T14:24:05;12.85;;;8.02;;
71671;SDS011;62112;45.638;11.714;2022-11-03T14:26:31;12.63;;;7.38;;
71671;SDS011;62112;45.638;11.714;2022-11-03T14:29:02;13.48;;;7.80;;
71671;SDS011;62112;45.638;11.714;2022-11-03T14:31:30;13.18;;;7.82;;
71671;SDS011;62112;45.638;11.714;2022-11-03T14:33:56;12.37;;;7.00;;
71671;SDS011;62112;45.638;11.714;2022-11-03T14:36:23;12.52;;;6.95;;
71671;SDS011;62112;45.638;11.714;2022-11-03T14:38:53;11.43;;;6.90;;
71671;SDS011;62112;45.638;11.714;2022-11-03T14:41:19;12.43;;;6.75;;
71671;SDS011;62112;45.638;11.714;2022-11-03T14:44:06;12.35;;;7.32;;
71671;SDS011;62112;45.638;11.714;2022-11-03T14:46:34;11.87;;;7.00;;
71671;SDS011;62112;45.638;11.714;2022-11-03T14:49:01;12.57;;;7.03;;
71671;SDS011;62112;45.638;11.714;2022-11-03T14:51:28;13.90;;;7.60;;
71671;SDS011;62112;45.638;11.714;2022-11-03T14:53:55;12.93;;;7.00;;
71671;SDS011;62112;45.638;11.714;2022-11-03T14:56:22;13.18;;;7.03;;
71671;SDS011;62112;45.638;11.714;2022-11-03T14:58:48;11.27;;;6.40;;
71671;SDS011;62112;45.638;11.714;2022-11-03T15:01:18;12.95;;;7.00;;
71671;SDS011;62112;45.638;11.714;2022-11-03T15:03:45;12.32;;;7.25;;
71671;SDS011;62112;45.638;11.714;2022-11-03T15:06:11;11.45;;;6.68;;
71671;SDS011;62112;45.638;11.714;2022-11-03T15:08:37;12.77;;;7.70;;
71671;SDS011;62112;45.638;11.714;2022-11-03T15:11:05;10.30;;;6.40;;
71671;SDS011;62112;45.638;11.714;2022-11-03T15:13:34;11.10;;;6.60;;
71671;SDS011;62112;45.638;11.714;2022-11-03T15:16:01;11.75;;;7.10;;
71671;SDS011;62112;45.638;11.714;2022-11-03T15:18:27;12.25;;;6.90;;
71671;SDS011;62112;45.638;11.714;2022-11-03T15:20:53;11.77;;;6.77;;
71671;SDS011;62112;45.638;11.714;2022-11-03T15:23:19;12.48;;;7.57;;
71671;SDS011;62112;45.638;11.714;2022-11-03T15:25:45;11.85;;;7.30;;
71671;SDS011;62112;45.638;11.714;2022-11-03T15:28:11;11.07;;;6.97;;
71671;SDS011;62112;45.638;11.714;2022-11-03T15:30:36;12.03;;;7.37;;
71671;SDS011;62112;45.638;11.714;2022-11-03T15:33:02;14.20;;;7.47;;
71671;SDS011;62112;45.638;11.714;2022-11-03T15:35:28;12.05;;;7.00;;
71671;SDS011;62112;45.638;11.714;2022-11-03T15:37:54;11.87;;;7.00;;
71671;SDS011;62112;45.638;11.714;2022-11-03T15:40:22;11.90;;;6.83;;
71671;SDS011;62112;45.638;11.714;2022-11-03T15:42:49;11.82;;;6.60;;
71671;SDS011;62112;45.638;11.714;2022-11-03T15:45:15;13.85;;;7.32;;
71671;SDS011;62112;45.638;11.714;2022-11-03T15:47:41;11.85;;;6.93;;
71671;SDS011;62112;45.638;11.714;2022-11-03T15:50:08;12.23;;;6.80;;
71671;SDS011;62112;45.638;11.714;2022-11-03T15:52:35;11.73;;;6.63;;
71671;SDS011;62112;45.638;11.714;2022-11-03T15:55:01;11.77;;;6.10;;
71671;SDS011;62112;45.638;11.714;2022-11-03T15:57:27;13.10;;;6.75;;
71671;SDS011;62112;45.638;11.714;2022-11-03T15:59:53;11.60;;;6.70;;
71671;SDS011;62112;45.638;11.714;2022-11-03T16:02:19;10.80;;;6.70;;
71671;SDS011;62112;45.638;11.714;2022-11-03T16:04:44;12.10;;;6.40;;
71671;SDS011;62112;45.638;11.714;2022-11-03T16:07:10;10.75;;;6.90;;